sensor_id;sensor_type;location;lat;lon;timestamp;pressure;altitude;pressure_sealevel;temperature;humidity
41264;BME280;26998;48.714;9.414;2023-09-12T00:01:35;99828.19;;;16.91;100.00
41264;BME280;26998;48.714;9.414;2023-09-12T00:04:02;99823.06;;;16.83;100.00
41264;BME280;26998;48.714;9.414;2023-09-12T00:06:28;99833.84;;;16.83;100.00
41264;BME280;26998;48.714;9.414;2023-09-12T00:08:55;99838.22;;;16.77;100.00
41264;BME280;26998;48.714;9.414;2023-09-12T00:11:23;99844.84;;;16.81;100.00
41264;BME280;26998;48.714;9.414;2023-09-12T00:13:51;99818.44;;;16.90;100.00
41264;BME280;26998;48.714;9.414;2023-09-12T00:16:18;99826.63;;;16.63;100.00
41264;BME280;26998;48.714;9.414;2023-09-12T00:18:45;99834.44;;;16.85;100.00
41264;BME280;26998;48.714;9.414;2023-09-12T00:21:11;99808.03;;;16.94;100.00
41264;BME280;26998;48.714;9.414;2023-09-12T00:23:38;99772.72;;;16.95;100.00
41264;BME280;26998;48.714;9.414;2023-09-12T00:26:06;99773.88;;;16.68;100.00
41264;BME280;26998;48.714;9.414;2023-09-12T00:28:34;99821.03;;;16.58;100.00
41264;BME280;26998;48.714;9.414;2023-09-12T00:31:01;99851.38;;;16.47;100.00
41264;BME280;26998;48.714;9.414;2023-09-12T00:33:27;99865.09;;;16.46;100.00
41264;BME280;26998;48.714;9.414;2023-09-12T00:35:54;99869.81;;;16.57;100.00
41264;BME280;26998;48.714;9.414;2023-09-12T00:38:30;99828.44;;;16.70;100.00
41264;BME280;26998;48.714;9.414;2023-09-12T00:40:56;99841.00;;;16.44;100.00
41264;BME280;26998;48.714;9.414;2023-09-12T00:43:26;99870.09;;;16.35;100.00
41264;BME280;26998;48.714;9.414;2023-09-12T00:46:03;99892.09;;;16.39;100.00
41264;BME280;26998;48.714;9.414;2023-09-12T00:48:30;99884.00;;;16.39;100.00
41264;BME280;26998;48.714;9.414;2023-09-12T00:50:59;99879.19;;;16.41;100.00
41264;BME280;26998;48.714;9.414;2023-09-12T00:53:28;99888.34;;;16.40;100.00
41264;BME280;26998;48.714;9.414;2023-09-12T00:55:57;99879.63;;;16.51;100.00
41264;BME280;26998;48.714;9.414;2023-09-12T00:58:25;99854.91;;;16.48;100.00
41264;BME280;26998;48.714;9.414;2023-09-12T01:00:53;99864.72;;;16.35;100.00
41264;BME280;26998;48.714;9.414;2023-09-12T01:03:20;99875.50;;;16.35;100.00
41264;BME280;26998;48.714;9.414;2023-09-12T01:05:47;99882.56;;;16.30;100.00
41264;BME280;26998;48.714;9.414;2023-09-12T01:08:14;99896.22;;;16.35;100.00
41264;BME280;26998;48.714;9.414;2023-09-12T01:10:40;99880.25;;;16.40;100.00
41264;BME280;26998;48.714;9.414;2023-09-12T01:13:07;99882.16;;;16.33;100.00
41264;BME280;26998;48.714;9.414;2023-09-12T01:15:34;99882.97;;;16.33;100.00
41264;BME280;26998;48.714;9.414;2023-09-12T01:18:01;99890.25;;;16.33;100.00
41264;BME280;26998;48.714;9.414;2023-09-12T01:20:34;99875.50;;;16.35;100.00
41264;BME280;26998;48.714;9.414;2023-09-12T01:28:39;99833.50;;;16.53;100.00
41264;BME280;26998;48.714;9.414;2023-09-12T01:31:07;99822.75;;;16.46;100.00
41264;BME280;26998;48.714;9.414;2023-09-12T01:33:33;99830.84;;;16.46;100.00
41264;BME280;26998;48.714;9.414;2023-09-12T01:36:00;99846.41;;;16.44;100.00
41264;BME280;26998;48.714;9.414;2023-09-12T01:38:26;99829.81;;;16.40;100.00
41264;BME280;26998;48.714;9.414;2023-09-12T01:40:54;99842.72;;;16.25;100.00
41264;BME280;26998;48.714;9.414;2023-09-12T01:43:23;99874.28;;;16.05;100.00
41264;BME280;26998;48.714;9.414;2023-09-12T01:45:53;99910.38;;;15.90;100.00
41264;BME280;26998;48.714;9.414;2023-09-12T01:48:23;99950.63;;;15.92;100.00
41264;BME280;26998;48.714;9.414;2023-09-12T01:50:51;99959.31;;;15.94;100.00
41264;BME280;26998;48.714;9.414;2023-09-12T01:53:19;99946.47;;;15.96;100.00
41264;BME280;26998;48.714;9.414;2023-09-12T01:55:48;99956.44;;;15.96;100.00
41264;BME280;26998;48.714;9.414;2023-09-12T01:58:14;99942.94;;;15.89;100.00
41264;BME280;26998;48.714;9.414;2023-09-12T02:00:41;99938.16;;;15.91;100.00
41264;BME280;26998;48.714;9.414;2023-09-12T02:03:08;99926.53;;;15.97;100.00
41264;BME280;26998;48.714;9.414;2023-09-12T02:05:35;99912.03;;;16.05;100.00
41264;BME280;26998;48.714;9.414;2023-09-12T02:08:02;99910.78;;;16.07;100.00
41264;BME280;26998;48.714;9.414;2023-09-12T02:10:28;99891.28;;;16.12;100.00
41264;BME280;26998;48.714;9.414;2023-09-12T02:12:55;99880.09;;;16.15;100.00
41264;BME280;26998;48.714;9.414;2023-09-12T02:15:21;99866.78;;;16.13;100.00
41264;BME280;26998;48.714;9.414;2023-09-12T02:17:49;99885.91;;;16.05;100.00
41264;BME280;26998;48.714;9.414;2023-09-12T02:20:16;99885.09;;;16.05;100.00
41264;BME280;26998;48.714;9.414;2023-09-12T02:22:42;99891.31;;;16.05;100.00
41264;BME280;26998;48.714;9.414;2023-09-12T02:25:11;99892.75;;;16.01;100.00
41264;BME280;26998;48.714;9.414;2023-09-12T02:27:38;99894.81;;;15.99;100.00
41264;BME280;26998;48.714;9.414;2023-09-12T02:30:05;99901.06;;;15.86;100.00
41264;BME280;26998;48.714;9.414;2023-09-12T02:32:32;99922.81;;;15.78;100.00
41264;BME280;26998;48.714;9.414;2023-09-12T02:34:58;99930.69;;;15.80;100.00
41264;BME280;26998;48.714;9.414;2023-09-12T02:37:25;99938.56;;;15.68;100.00
41264;BME280;26998;48.714;9.414;2023-09-12T02:39:51;99939.19;;;15.77;100.00
41264;BME280;26998;48.714;9.414;2023-09-12T02:42:18;99926.28;;;15.65;100.00
41264;BME280;26998;48.714;9.414;2023-09-12T02:44:44;99935.19;;;15.59;100.00
41264;BME280;26998;48.714;9.414;2023-09-12T02:47:11;99938.28;;;15.63;100.00
41264;BME280;26998;48.714;9.414;2023-09-12T02:49:38;99932.34;;;15.67;100.00
41264;BME280;26998;48.714;9.414;2023-09-12T02:52:04;99907.88;;;15.76;100.00
41264;BME280;26998;48.714;9.414;2023-09-12T02:54:31;99892.09;;;15.73;100.00
41264;BME280;26998;48.714;9.414;2023-09-12T02:56:57;99894.75;;;15.53;100.00
41264;BME280;26998;48.714;9.414;2023-09-12T02:59:24;99912.56;;;15.47;100.00
41264;BME280;26998;48.714;9.414;2023-09-12T03:01:50;99936.19;;;15.45;100.00
41264;BME280;26998;48.714;9.414;2023-09-12T03:04:17;99934.34;;;15.59;100.00
41264;BME280;26998;48.714;9.414;2023-09-12T03:06:43;99921.75;;;15.73;100.00
41264;BME280;26998;48.714;9.414;2023-09-12T03:09:10;99897.06;;;15.62;100.00
41264;BME280;26998;48.714;9.414;2023-09-12T03:11:37;99900.97;;;15.66;100.00
41264;BME280;26998;48.714;9.414;2023-09-12T03:14:03;99899.50;;;15.51;100.00
41264;BME280;26998;48.714;9.414;2023-09-12T03:16:30;99900.13;;;15.46;100.00
41264;BME280;26998;48.714;9.414;2023-09-12T03:18:56;99909.88;;;15.40;100.00
41264;BME280;26998;48.714;9.414;2023-09-12T03:21:23;99913.59;;;15.39;100.00
41264;BME280;26998;48.714;9.414;2023-09-12T03:23:49;99918.09;;;15.25;100.00
41264;BME280;26998;48.714;9.414;2023-09-12T03:26:16;99937.34;;;15.16;100.00
41264;BME280;26998;48.714;9.414;2023-09-12T03:28:43;99946.47;;;15.15;100.00
41264;BME280;26998;48.714;9.414;2023-09-12T03:31:12;99952.63;;;15.09;100.00
41264;BME280;26998;48.714;9.414;2023-09-12T03:33:41;99958.28;;;15.20;100.00
41264;BME280;26998;48.714;9.414;2023-09-12T03:36:08;99968.88;;;15.29;100.00
41264;BME280;26998;48.714;9.414;2023-09-12T03:38:35;99948.78;;;15.31;100.00
41264;BME280;26998;48.714;9.414;2023-09-12T03:41:02;99932.97;;;15.08;100.00
41264;BME280;26998;48.714;9.414;2023-09-12T03:43:29;99950.34;;;15.06;100.00
41264;BME280;26998;48.714;9.414;2023-09-12T03:45:56;99966.53;;;15.12;100.00
41264;BME280;26998;48.714;9.414;2023-09-12T03:48:22;99978.91;;;15.07;100.00
41264;BME280;26998;48.714;9.414;2023-09-12T03:50:49;99972.31;;;15.09;100.00
41264;BME280;26998;48.714;9.414;2023-09-12T03:53:16;99965.88;;;15.10;100.00
41264;BME280;26998;48.714;9.414;2023-09-12T03:55:43;99974.78;;;15.11;100.00
41264;BME280;26998;48.714;9.414;2023-09-12T03:58:16;99959.25;;;15.06;100.00
41264;BME280;26998;48.714;9.414;2023-09-12T04:00:58;99955.09;;;15.04;100.00
41264;BME280;26998;48.714;9.414;2023-09-12T04:03:25;99968.56;;;15.04;100.00
41264;BME280;26998;48.714;9.414;2023-09-12T04:05:52;99974.75;;;15.04;100.00
41264;BME280;26998;48.714;9.414;2023-09-12T04:08:18;99981.84;;;15.05;100.00
41264;BME280;26998;48.714;9.414;2023-09-12T04:10:45;99971.88;;;15.06;100.00
41264;BME280;26998;48.714;9.414;2023-09-12T04:13:11;99967.31;;;15.06;100.00
41264;BME280;26998;48.714;9.414;2023-09-12T04:15:38;99962.78;;;15.13;100.00
41264;BME280;26998;48.714;9.414;2023-09-12T04:18:04;99956.00;;;15.17;100.00
41264;BME280;26998;48.714;9.414;2023-09-12T04:20:31;99934.69;;;15.29;100.00
41264;BME280;26998;48.714;9.414;2023-09-12T04:23:01;99924.25;;;15.06;100.00
41264;BME280;26998;48.714;9.414;2023-09-12T04:25:27;99938.34;;;15.08;100.00
41264;BME280;26998;48.714;9.414;2023-09-12T04:27:54;99948.25;;;15.08;100.00
41264;BME280;26998;48.714;9.414;2023-09-12T04:30:20;99951.16;;;14.99;100.00
41264;BME280;26998;48.714;9.414;2023-09-12T04:32:50;99963.97;;;14.97;100.00
41264;BME280;26998;48.714;9.414;2023-09-12T04:35:16;99987.75;;;14.94;100.00
41264;BME280;26998;48.714;9.414;2023-09-12T04:37:42;99986.09;;;14.86;100.00
41264;BME280;26998;48.714;9.414;2023-09-12T04:40:09;99982.13;;;14.89;100.00
41264;BME280;26998;48.714;9.414;2023-09-12T04:42:37;99990.03;;;14.90;100.00
41264;BME280;26998;48.714;9.414;2023-09-12T04:45:04;99803.25;;;14.85;100.00
41264;BME280;26998;48.714;9.414;2023-09-12T04:47:30;98640.66;;;14.91;100.00
41264;BME280;26998;48.714;9.414;2023-09-12T04:49:57;98644.31;;;14.97;100.00
41264;BME280;26998;48.714;9.414;2023-09-12T04:52:23;98649.34;;;14.93;100.00
41264;BME280;26998;48.714;9.414;2023-09-12T04:54:50;98652.50;;;14.90;100.00
41264;BME280;26998;48.714;9.414;2023-09-12T04:57:17;98642.31;;;14.81;100.00
41264;BME280;26998;48.714;9.414;2023-09-12T04:59:44;98631.53;;;14.81;100.00
41264;BME280;26998;48.714;9.414;2023-09-12T05:02:10;98633.16;;;14.82;100.00
41264;BME280;26998;48.714;9.414;2023-09-12T05:04:37;98633.41;;;14.80;100.00
41264;BME280;26998;48.714;9.414;2023-09-12T05:07:03;98634.94;;;14.88;100.00
41264;BME280;26998;48.714;9.414;2023-09-12T05:09:31;98639.63;;;14.81;100.00
41264;BME280;26998;48.714;9.414;2023-09-12T05:11:58;98638.34;;;14.83;100.00
41264;BME280;26998;48.714;9.414;2023-09-12T05:14:24;98633.16;;;14.82;100.00
41264;BME280;26998;48.714;9.414;2023-09-12T05:16:51;98629.19;;;14.84;100.00
41264;BME280;26998;48.714;9.414;2023-09-12T05:19:19;98638.94;;;14.97;100.00
41264;BME280;26998;48.714;9.414;2023-09-12T05:21:45;98660.13;;;15.05;100.00
41264;BME280;26998;48.714;9.414;2023-09-12T05:24:12;98668.66;;;15.02;100.00
41264;BME280;26998;48.714;9.414;2023-09-12T05:26:38;98678.25;;;14.98;100.00
41264;BME280;26998;48.714;9.414;2023-09-12T05:29:09;98691.03;;;15.14;100.00
41264;BME280;26998;48.714;9.414;2023-09-12T05:31:35;98704.63;;;15.19;100.00
41264;BME280;26998;48.714;9.414;2023-09-12T05:34:02;98728.38;;;15.22;100.00
41264;BME280;26998;48.714;9.414;2023-09-12T05:36:29;98747.38;;;15.28;100.00
41264;BME280;26998;48.714;9.414;2023-09-12T05:38:56;98762.34;;;15.23;100.00
41264;BME280;26998;48.714;9.414;2023-09-12T05:41:26;98760.50;;;15.36;100.00
41264;BME280;26998;48.714;9.414;2023-09-12T05:43:53;98782.19;;;15.53;100.00
41264;BME280;26998;48.714;9.414;2023-09-12T05:46:22;98808.31;;;15.52;100.00
41264;BME280;26998;48.714;9.414;2023-09-12T05:48:49;98812.53;;;15.60;100.00
41264;BME280;26998;48.714;9.414;2023-09-12T05:51:15;98831.50;;;15.65;100.00
41264;BME280;26998;48.714;9.414;2023-09-12T05:53:42;98839.34;;;15.66;100.00
41264;BME280;26998;48.714;9.414;2023-09-12T05:56:09;98852.25;;;15.64;100.00
41264;BME280;26998;48.714;9.414;2023-09-12T05:58:36;98854.13;;;15.64;100.00
41264;BME280;26998;48.714;9.414;2023-09-12T06:01:06;98855.81;;;15.77;100.00
41264;BME280;26998;48.714;9.414;2023-09-12T06:03:35;98877.50;;;15.82;100.00
41264;BME280;26998;48.714;9.414;2023-09-12T06:06:03;98896.16;;;16.07;100.00
41264;BME280;26998;48.714;9.414;2023-09-12T06:08:30;98941.56;;;16.33;100.00
41264;BME280;26998;48.714;9.414;2023-09-12T06:10:57;98980.53;;;16.61;100.00
41264;BME280;26998;48.714;9.414;2023-09-12T06:13:25;98996.47;;;16.51;100.00
41264;BME280;26998;48.714;9.414;2023-09-12T06:15:54;98996.47;;;16.51;100.00
41264;BME280;26998;48.714;9.414;2023-09-12T06:18:26;99001.19;;;16.55;100.00
41264;BME280;26998;48.714;9.414;2023-09-12T06:20:53;99006.03;;;16.77;100.00
41264;BME280;26998;48.714;9.414;2023-09-12T06:23:19;99024.47;;;16.80;100.00
41264;BME280;26998;48.714;9.414;2023-09-12T06:25:46;99018.13;;;16.86;100.00
41264;BME280;26998;48.714;9.414;2023-09-12T06:28:24;99032.78;;;17.02;100.00
41264;BME280;26998;48.714;9.414;2023-09-12T06:30:52;99041.44;;;17.27;100.00
41264;BME280;26998;48.714;9.414;2023-09-12T06:33:19;99032.28;;;17.28;100.00
41264;BME280;26998;48.714;9.414;2023-09-12T06:35:49;99039.38;;;17.70;100.00
41264;BME280;26998;48.714;9.414;2023-09-12T06:38:16;99029.22;;;17.48;100.00
41264;BME280;26998;48.714;9.414;2023-09-12T06:40:43;99027.16;;;17.67;100.00
41264;BME280;26998;48.714;9.414;2023-09-12T06:43:10;99032.91;;;17.83;100.00
41264;BME280;26998;48.714;9.414;2023-09-12T06:45:37;99034.72;;;17.94;100.00
41264;BME280;26998;48.714;9.414;2023-09-12T06:48:04;99300.88;;;18.21;100.00
41264;BME280;26998;48.714;9.414;2023-09-12T06:50:30;99260.50;;;18.43;100.00
41264;BME280;26998;48.714;9.414;2023-09-12T06:53:00;99271.59;;;18.30;100.00
41264;BME280;26998;48.714;9.414;2023-09-12T06:55:27;99262.72;;;18.46;100.00
41264;BME280;26998;48.714;9.414;2023-09-12T06:57:54;99251.34;;;18.44;100.00
41264;BME280;26998;48.714;9.414;2023-09-12T07:00:23;99242.34;;;18.56;100.00
41264;BME280;26998;48.714;9.414;2023-09-12T07:02:50;99230.31;;;18.63;100.00
41264;BME280;26998;48.714;9.414;2023-09-12T07:05:17;99226.56;;;18.53;100.00
41264;BME280;26998;48.714;9.414;2023-09-12T07:07:47;99216.53;;;18.65;100.00
41264;BME280;26998;48.714;9.414;2023-09-12T07:10:14;99193.91;;;18.71;100.00
41264;BME280;26998;48.714;9.414;2023-09-12T07:12:52;99177.47;;;19.06;100.00
41264;BME280;26998;48.714;9.414;2023-09-12T07:15:19;99131.53;;;18.95;100.00
41264;BME280;26998;48.714;9.414;2023-09-12T07:17:48;99117.31;;;19.04;100.00
41264;BME280;26998;48.714;9.414;2023-09-12T07:20:15;99100.41;;;19.14;100.00
41264;BME280;26998;48.714;9.414;2023-09-12T07:22:42;99068.47;;;19.16;100.00
41264;BME280;26998;48.714;9.414;2023-09-12T07:25:09;99061.81;;;19.24;100.00
41264;BME280;26998;48.714;9.414;2023-09-12T07:27:37;99060.53;;;19.31;100.00
41264;BME280;26998;48.714;9.414;2023-09-12T07:30:05;99045.34;;;19.30;100.00
41264;BME280;26998;48.714;9.414;2023-09-12T07:32:33;99056.28;;;19.35;100.00
41264;BME280;26998;48.714;9.414;2023-09-12T07:35:01;99070.34;;;19.32;100.00
41264;BME280;26998;48.714;9.414;2023-09-12T07:37:29;99055.34;;;19.47;100.00
41264;BME280;26998;48.714;9.414;2023-09-12T07:39:56;99026.88;;;19.66;100.00
41264;BME280;26998;48.714;9.414;2023-09-12T07:42:23;99027.72;;;19.67;100.00
41264;BME280;26998;48.714;9.414;2023-09-12T07:44:50;99019.38;;;19.73;100.00
41264;BME280;26998;48.714;9.414;2023-09-12T07:47:18;99012.31;;;19.72;100.00
41264;BME280;26998;48.714;9.414;2023-09-12T07:49:53;99032.81;;;19.85;100.00
41264;BME280;26998;48.714;9.414;2023-09-12T07:52:20;99030.47;;;19.94;100.00
41264;BME280;26998;48.714;9.414;2023-09-12T07:54:46;98981.09;;;19.97;100.00
41264;BME280;26998;48.714;9.414;2023-09-12T07:57:13;98956.41;;;20.25;100.00
41264;BME280;26998;48.714;9.414;2023-09-12T07:59:39;98935.50;;;20.53;100.00
41264;BME280;26998;48.714;9.414;2023-09-12T08:02:07;98887.97;;;21.03;100.00
41264;BME280;26998;48.714;9.414;2023-09-12T08:04:36;98814.66;;;21.34;100.00
41264;BME280;26998;48.714;9.414;2023-09-12T08:07:03;98793.22;;;21.73;100.00
41264;BME280;26998;48.714;9.414;2023-09-12T08:09:50;98780.44;;;21.43;100.00
41264;BME280;26998;48.714;9.414;2023-09-12T08:12:19;98825.50;;;21.18;100.00
41264;BME280;26998;48.714;9.414;2023-09-12T08:14:46;98830.13;;;21.33;100.00
41264;BME280;26998;48.714;9.414;2023-09-12T08:17:13;98800.88;;;21.56;100.00
41264;BME280;26998;48.714;9.414;2023-09-12T08:19:41;98767.66;;;21.79;100.00
41264;BME280;26998;48.714;9.414;2023-09-12T08:22:10;98795.94;;;21.68;100.00
41264;BME280;26998;48.714;9.414;2023-09-12T08:24:37;98789.13;;;21.96;100.00
41264;BME280;26998;48.714;9.414;2023-09-12T08:27:04;98756.47;;;22.01;100.00
41264;BME280;26998;48.714;9.414;2023-09-12T08:29:33;98804.91;;;21.43;100.00
41264;BME280;26998;48.714;9.414;2023-09-12T08:32:02;98827.22;;;21.55;100.00
41264;BME280;26998;48.714;9.414;2023-09-12T08:34:29;98805.47;;;21.55;100.00
41264;BME280;26998;48.714;9.414;2023-09-12T08:36:56;98790.22;;;21.95;100.00
41264;BME280;26998;48.714;9.414;2023-09-12T08:39:27;98748.31;;;22.06;100.00
41264;BME280;26998;48.714;9.414;2023-09-12T08:41:54;98719.44;;;22.21;100.00
41264;BME280;26998;48.714;9.414;2023-09-12T08:44:21;98654.56;;;22.88;100.00
41264;BME280;26998;48.714;9.414;2023-09-12T08:46:51;98620.31;;;23.11;100.00
41264;BME280;26998;48.714;9.414;2023-09-12T08:49:18;98592.25;;;23.39;100.00
41264;BME280;26998;48.714;9.414;2023-09-12T08:51:45;98575.47;;;23.80;100.00
41264;BME280;26998;48.714;9.414;2023-09-12T08:54:12;98570.66;;;23.96;100.00
41264;BME280;26998;48.714;9.414;2023-09-12T08:56:40;98574.63;;;23.56;100.00
41264;BME280;26998;48.714;9.414;2023-09-12T08:59:08;98579.03;;;23.51;100.00
41264;BME280;26998;48.714;9.414;2023-09-12T09:01:36;98565.81;;;23.88;100.00
41264;BME280;26998;48.714;9.414;2023-09-12T09:04:04;98544.91;;;24.21;100.00
41264;BME280;26998;48.714;9.414;2023-09-12T09:06:35;98575.97;;;24.25;100.00
41264;BME280;26998;48.714;9.414;2023-09-12T09:09:04;98531.91;;;24.32;100.00
41264;BME280;26998;48.714;9.414;2023-09-12T09:11:31;98509.25;;;24.50;100.00
41264;BME280;26998;48.714;9.414;2023-09-12T09:13:58;98501.34;;;24.68;100.00
41264;BME280;26998;48.714;9.414;2023-09-12T09:16:25;98497.94;;;24.89;100.00
41264;BME280;26998;48.714;9.414;2023-09-12T09:18:56;98484.00;;;25.05;100.00
41264;BME280;26998;48.714;9.414;2023-09-12T09:21:25;98471.28;;;25.14;100.00
41264;BME280;26998;48.714;9.414;2023-09-12T09:23:53;98460.91;;;24.97;100.00
41264;BME280;26998;48.714;9.414;2023-09-12T09:26:21;98463.56;;;25.16;100.00
41264;BME280;26998;48.714;9.414;2023-09-12T09:29:06;98445.84;;;25.41;100.00
41264;BME280;26998;48.714;9.414;2023-09-12T09:31:34;98434.75;;;25.60;100.00
41264;BME280;26998;48.714;9.414;2023-09-12T09:34:02;98433.00;;;25.92;100.00
41264;BME280;26998;48.714;9.414;2023-09-12T09:36:30;98424.72;;;25.83;100.00
41264;BME280;26998;48.714;9.414;2023-09-12T09:38:57;98409.69;;;26.17;100.00
41264;BME280;26998;48.714;9.414;2023-09-12T09:41:24;98394.97;;;26.35;100.00
41264;BME280;26998;48.714;9.414;2023-09-12T09:43:51;98401.97;;;26.19;100.00
41264;BME280;26998;48.714;9.414;2023-09-12T09:46:20;98396.63;;;26.14;100.00
41264;BME280;26998;48.714;9.414;2023-09-12T09:48:53;98389.06;;;25.97;100.00
41264;BME280;26998;48.714;9.414;2023-09-12T09:51:23;98394.19;;;26.12;100.00
41264;BME280;26998;48.714;9.414;2023-09-12T09:53:53;98389.25;;;26.00;100.00
41264;BME280;26998;48.714;9.414;2023-09-12T09:56:19;98384.28;;;26.25;100.00
41264;BME280;26998;48.714;9.414;2023-09-12T09:58:55;98377.94;;;26.16;100.00
41264;BME280;26998;48.714;9.414;2023-09-12T10:01:27;98371.53;;;26.20;100.00
41264;BME280;26998;48.714;9.414;2023-09-12T10:04:00;98367.66;;;26.21;100.00
41264;BME280;26998;48.714;9.414;2023-09-12T10:06:28;98369.38;;;26.40;100.00
41264;BME280;26998;48.714;9.414;2023-09-12T10:09:00;98365.19;;;26.65;100.00
41264;BME280;26998;48.714;9.414;2023-09-12T10:11:28;98358.50;;;26.80;100.00
41264;BME280;26998;48.714;9.414;2023-09-12T10:14:01;98351.31;;;26.61;100.00
41264;BME280;26998;48.714;9.414;2023-09-12T10:16:32;98350.19;;;26.62;100.00
41264;BME280;26998;48.714;9.414;2023-09-12T10:21:33;98332.03;;;27.24;100.00
41264;BME280;26998;48.714;9.414;2023-09-12T10:24:03;98322.78;;;27.20;100.00
41264;BME280;26998;48.714;9.414;2023-09-12T10:26:34;98323.63;;;27.29;100.00
41264;BME280;26998;48.714;9.414;2023-09-12T10:29:02;98317.97;;;27.25;100.00
41264;BME280;26998;48.714;9.414;2023-09-12T10:31:31;98322.97;;;27.75;100.00
41264;BME280;26998;48.714;9.414;2023-09-12T10:33:58;98317.44;;;28.27;97.51
41264;BME280;26998;48.714;9.414;2023-09-12T10:36:29;98313.53;;;28.28;97.94
41264;BME280;26998;48.714;9.414;2023-09-12T10:38:57;98314.81;;;28.48;95.60
41264;BME280;26998;48.714;9.414;2023-09-12T10:41:32;98311.50;;;29.32;87.93
41264;BME280;26998;48.714;9.414;2023-09-12T10:44:00;98310.63;;;28.51;94.28
41264;BME280;26998;48.714;9.414;2023-09-12T10:46:28;98304.25;;;28.97;90.54
41264;BME280;26998;48.714;9.414;2023-09-12T10:48:55;98313.50;;;28.54;92.49
41264;BME280;26998;48.714;9.414;2023-09-12T10:51:22;98317.56;;;28.48;90.36
41264;BME280;26998;48.714;9.414;2023-09-12T10:53:51;98317.06;;;28.85;90.73
41264;BME280;26998;48.714;9.414;2023-09-12T10:56:21;98316.78;;;28.77;92.06
41264;BME280;26998;48.714;9.414;2023-09-12T11:01:31;98317.69;;;28.90;90.67
41264;BME280;26998;48.714;9.414;2023-09-12T11:03:58;98314.28;;;28.93;92.40
41264;BME280;26998;48.714;9.414;2023-09-12T11:06:29;98312.94;;;28.99;90.27
41264;BME280;26998;48.714;9.414;2023-09-12T11:09:22;98318.13;;;29.10;88.75
41264;BME280;26998;48.714;9.414;2023-09-12T11:12:02;98318.50;;;28.91;86.12
41264;BME280;26998;48.714;9.414;2023-09-12T11:14:29;98317.25;;;29.60;85.02
41264;BME280;26998;48.714;9.414;2023-09-12T11:17:22;98313.28;;;29.28;85.49
41264;BME280;26998;48.714;9.414;2023-09-12T11:19:51;98309.69;;;29.57;88.56
41264;BME280;26998;48.714;9.414;2023-09-12T11:22:25;98309.28;;;29.88;82.35
41264;BME280;26998;48.714;9.414;2023-09-12T11:24:54;98303.59;;;29.72;82.24
41264;BME280;26998;48.714;9.414;2023-09-12T11:27:22;98306.84;;;30.20;74.49
41264;BME280;26998;48.714;9.414;2023-09-12T11:29:49;98300.56;;;30.56;68.62
41264;BME280;26998;48.714;9.414;2023-09-12T11:32:32;98295.75;;;30.41;72.26
41264;BME280;26998;48.714;9.414;2023-09-12T11:35:08;98295.06;;;30.56;71.80
41264;BME280;26998;48.714;9.414;2023-09-12T11:37:35;98298.44;;;30.16;57.16
41264;BME280;26998;48.714;9.414;2023-09-12T11:40:41;98291.31;;;30.15;65.31
41264;BME280;26998;48.714;9.414;2023-09-12T11:43:22;98280.72;;;30.38;63.62
41264;BME280;26998;48.714;9.414;2023-09-12T11:45:49;98292.19;;;30.40;55.20
41264;BME280;26998;48.714;9.414;2023-09-12T11:48:16;98287.84;;;30.64;50.37
41264;BME280;26998;48.714;9.414;2023-09-12T11:50:42;98283.81;;;30.73;53.73
41264;BME280;26998;48.714;9.414;2023-09-12T11:53:10;98284.72;;;30.53;53.94
41264;BME280;26998;48.714;9.414;2023-09-12T11:55:44;98284.03;;;30.56;45.03
41264;BME280;26998;48.714;9.414;2023-09-12T11:58:13;98276.91;;;30.67;43.88
41264;BME280;26998;48.714;9.414;2023-09-12T12:00:58;98270.03;;;30.98;44.40
41264;BME280;26998;48.714;9.414;2023-09-12T12:03:27;98276.03;;;31.00;44.50
41264;BME280;26998;48.714;9.414;2023-09-12T12:06:00;98271.03;;;31.18;43.38
41264;BME280;26998;48.714;9.414;2023-09-12T12:08:27;98267.28;;;30.86;40.80
41264;BME280;26998;48.714;9.414;2023-09-12T12:10:58;98276.03;;;30.88;42.49
41264;BME280;26998;48.714;9.414;2023-09-12T12:13:25;98271.53;;;30.95;39.19
41264;BME280;26998;48.714;9.414;2023-09-12T12:15:52;98269.91;;;30.70;38.68
41264;BME280;26998;48.714;9.414;2023-09-12T12:18:20;98272.47;;;30.75;40.34
41264;BME280;26998;48.714;9.414;2023-09-12T12:20:47;98274.94;;;31.17;37.47
41264;BME280;26998;48.714;9.414;2023-09-12T12:23:14;98273.88;;;31.21;38.35
41264;BME280;26998;48.714;9.414;2023-09-12T12:25:41;98271.72;;;31.15;36.98
41264;BME280;26998;48.714;9.414;2023-09-12T12:28:08;98266.66;;;31.17;37.29
41264;BME280;26998;48.714;9.414;2023-09-12T12:30:35;98271.97;;;31.34;35.14
41264;BME280;26998;48.714;9.414;2023-09-12T12:33:08;98271.81;;;31.18;36.00
41264;BME280;26998;48.714;9.414;2023-09-12T12:36:02;98266.00;;;31.08;37.44
41264;BME280;26998;48.714;9.414;2023-09-12T12:38:34;98256.78;;;31.16;36.14
41264;BME280;26998;48.714;9.414;2023-09-12T12:41:03;98259.16;;;31.42;36.27
41264;BME280;26998;48.714;9.414;2023-09-12T12:43:30;98248.47;;;31.40;35.45
41264;BME280;26998;48.714;9.414;2023-09-12T12:45:58;98241.47;;;31.18;36.06
41264;BME280;26998;48.714;9.414;2023-09-12T12:48:31;98240.50;;;31.67;34.69
41264;BME280;26998;48.714;9.414;2023-09-12T12:50:59;98235.09;;;31.70;35.65
41264;BME280;26998;48.714;9.414;2023-09-12T12:53:47;98234.09;;;31.91;36.08
41264;BME280;26998;48.714;9.414;2023-09-12T12:56:23;98235.00;;;31.67;37.83
41264;BME280;26998;48.714;9.414;2023-09-12T12:58:57;98228.31;;;31.40;34.85
41264;BME280;26998;48.714;9.414;2023-09-12T13:01:27;98236.59;;;31.27;35.53
41264;BME280;26998;48.714;9.414;2023-09-12T13:03:53;98234.81;;;31.19;34.96
41264;BME280;26998;48.714;9.414;2023-09-12T13:06:22;98232.19;;;31.51;36.58
41264;BME280;26998;48.714;9.414;2023-09-12T13:08:51;98232.06;;;31.75;35.72
41264;BME280;26998;48.714;9.414;2023-09-12T13:11:18;98226.78;;;31.70;34.63